Weather at Sweetbriar Airport

Public forecast

Using degrees Fahrenheit for public forecast. Weather courtesy of forecast.io.

Closest aviation weather report (METAR) to Sweetbriar Airport

Closest report is Fort Smith Regional Airport, 11.4 nm (21.1 km) ENE. Retrieved 2022/06/26 01:53 UTC (41 minutes ago):

KFSM 260153Z 00000KT 10SM CLR 34/23 A2995 RMK AO2 SLP134 T03390233

Closest aviation forecast (TAF) to Sweetbriar Airport

Closest forecast is Fort Smith Regional Airport, 11.4 nm (21.1 km) ENE. Retrieved 2022-06-26 00:24 UTC (2 hours ago):

TAF KFSM 252321Z 2600/2624 18005KT P6SM SKC FM261300 04011KT P6SM SCT020 SCT080 FM261800 02011KT P6SM SCT050 SCT100